createdAt,value
2022-08-28T00:01:26.656Z,86.78
2022-08-28T00:03:53.390Z,86.79
2022-08-28T00:06:20.118Z,86.27
2022-08-28T00:08:46.790Z,86.51
2022-08-28T00:11:13.445Z,86.69
2022-08-28T00:13:40.352Z,87.42
2022-08-28T00:16:07.399Z,88.39
2022-08-28T00:18:34.587Z,88.53
2022-08-28T00:21:01.654Z,89.01
2022-08-28T00:23:42.294Z,89.48
2022-08-28T00:26:09.335Z,89.47
2022-08-28T00:28:35.901Z,89.66
2022-08-28T00:31:02.753Z,90.11
2022-08-28T00:33:33.221Z,90.56
2022-08-28T00:36:01.096Z,90.73
2022-08-28T00:38:28.668Z,90.55
2022-08-28T00:41:01.143Z,90.69
2022-08-28T00:47:15.765Z,89.14
2022-08-28T00:49:49.449Z,88.92
2022-08-28T00:52:17.539Z,88.16
2022-08-28T00:54:58.410Z,88.13
2022-08-28T00:57:30.766Z,87.87
2022-08-28T00:59:58.193Z,87.85
2022-08-28T01:02:25.561Z,88.13
2022-08-28T01:04:52.331Z,87.47
2022-08-28T01:07:19.825Z,87.15
2022-08-28T01:09:51.093Z,86.78
2022-08-28T01:12:21.890Z,86.47
2022-08-28T01:14:51.057Z,87.18
2022-08-28T01:17:20.756Z,87.59
2022-08-28T01:19:57.968Z,87.86
2022-08-28T01:22:38.666Z,87.98
2022-08-28T01:25:14.415Z,87.53
2022-08-28T01:27:44.113Z,87.61
2022-08-28T01:30:16.997Z,87.60
2022-08-28T01:32:49.234Z,87.33
2022-08-28T01:35:20.278Z,87.89
2022-08-28T01:37:47.512Z,87.93
2022-08-28T01:40:18.133Z,88.08
2022-08-28T01:42:45.012Z,87.97
2022-08-28T01:45:15.749Z,87.57
2022-08-28T01:47:44.615Z,87.28
2022-08-28T01:50:15.074Z,87.41
2022-08-28T01:52:42.769Z,87.29
2022-08-28T01:55:10.836Z,87.06
2022-08-28T01:57:52.993Z,87.18
2022-08-28T02:00:20.602Z,87.51
2022-08-28T02:02:48.350Z,87.80
2022-08-28T02:05:15.295Z,88.18
2022-08-28T02:07:41.807Z,88.08
2022-08-28T02:10:11.956Z,88.37
2022-08-28T02:12:39.177Z,88.24
2022-08-28T02:15:07.798Z,88.26
2022-08-28T02:17:34.691Z,88.20
2022-08-28T02:20:01.602Z,88.24
2022-08-28T02:22:28.098Z,87.76
2022-08-28T02:24:54.600Z,87.98
2022-08-28T02:27:21.152Z,88.16
2022-08-28T02:29:48.522Z,88.17
2022-08-28T02:32:15.158Z,88.10
2022-08-28T02:34:43.549Z,88.25
2022-08-28T02:37:13.249Z,88.20
2022-08-28T02:39:40.004Z,88.29
2022-08-28T02:42:07.278Z,88.18
2022-08-28T02:44:34.978Z,88.59
2022-08-28T02:47:01.628Z,88.47
2022-08-28T02:49:33.053Z,88.18
2022-08-28T02:52:04.140Z,88.64
2022-08-28T02:54:31.185Z,88.25
2022-08-28T02:56:58.634Z,88.61
2022-08-28T02:59:25.405Z,88.66
2022-08-28T03:01:52.062Z,88.38
2022-08-28T03:04:18.955Z,88.14
2022-08-28T03:06:45.720Z,88.02
2022-08-28T03:09:12.308Z,87.98
2022-08-28T03:11:41.213Z,88.27
2022-08-28T03:14:07.938Z,87.80
2022-08-28T03:16:34.441Z,87.77
2022-08-28T03:19:01.033Z,87.71
2022-08-28T03:21:27.575Z,87.69
2022-08-28T03:23:54.213Z,87.90
2022-08-28T03:26:20.837Z,87.62
2022-08-28T03:28:52.491Z,88.02
2022-08-28T03:31:23.565Z,87.87
2022-08-28T03:33:51.467Z,87.96
2022-08-28T03:36:23.873Z,87.83
2022-08-28T03:38:52.503Z,87.43
2022-08-28T03:41:23.201Z,87.97
2022-08-28T03:43:50.767Z,88.19
2022-08-28T03:46:21.191Z,88.77
2022-08-28T03:48:48.026Z,88.96
2022-08-28T03:51:19.870Z,88.83
2022-08-28T03:53:52.742Z,88.98
2022-08-28T03:56:22.786Z,89.24
2022-08-28T03:58:52.784Z,89.05
2022-08-28T04:01:20.668Z,89.09
2022-08-28T04:03:47.940Z,88.98
2022-08-28T04:06:14.885Z,88.15
2022-08-28T04:08:41.767Z,88.24
2022-08-28T04:11:08.472Z,88.21
2022-08-28T04:13:35.379Z,88.29
2022-08-28T04:16:06.458Z,88.79
2022-08-28T04:18:33.463Z,89.26
2022-08-28T04:21:07.995Z,88.99
2022-08-28T04:23:39.053Z,88.71
2022-08-28T04:26:07.517Z,88.41
2022-08-28T04:28:35.079Z,87.76
2022-08-28T04:31:02.619Z,87.36
2022-08-28T04:33:29.770Z,87.40
2022-08-28T04:35:57.047Z,87.85
2022-08-28T04:38:24.294Z,88.34
2022-08-28T04:40:50.824Z,88.34
2022-08-28T04:43:17.382Z,88.35
2022-08-28T04:45:45.560Z,88.24
2022-08-28T04:48:14.211Z,88.12
2022-08-28T04:50:44.596Z,88.20
2022-08-28T04:53:11.785Z,88.50
2022-08-28T04:55:54.646Z,88.85
2022-08-28T04:58:23.905Z,88.55
2022-08-28T05:10:32.458Z,88.40
2022-08-28T05:13:12.224Z,87.87
2022-08-28T05:15:42.898Z,87.77
2022-08-28T05:18:20.605Z,87.76
2022-08-28T05:23:35.102Z,87.97
2022-08-28T05:28:57.873Z,87.76
2022-08-28T05:34:08.573Z,86.97
2022-08-28T05:36:42.043Z,87.16
2022-08-28T05:39:16.299Z,86.45
2022-08-28T05:41:46.984Z,86.44
2022-08-28T05:54:52.919Z,84.66
2022-08-28T05:57:24.896Z,84.31
2022-08-28T06:05:21.263Z,83.54
2022-08-28T06:23:55.154Z,82.53
2022-08-28T06:30:09.630Z,81.32
2022-08-28T06:32:51.159Z,81.49
2022-08-28T06:35:26.781Z,81.47
2022-08-28T06:37:59.800Z,81.28
2022-08-28T06:40:34.449Z,80.92
2022-08-28T06:43:01.427Z,81.19
2022-08-28T06:45:32.824Z,81.19
2022-08-28T06:48:03.622Z,80.91
2022-08-28T06:50:35.577Z,80.00
2022-08-28T06:53:04.687Z,79.69
2022-08-28T06:55:31.470Z,79.02
2022-08-28T06:57:59.878Z,78.47
2022-08-28T07:00:26.473Z,78.43
2022-08-28T07:02:53.160Z,78.77
2022-08-28T07:05:19.838Z,77.92
2022-08-28T07:07:46.409Z,77.81
2022-08-28T07:10:13.082Z,77.76
2022-08-28T07:12:40.762Z,77.92
2022-08-28T07:15:08.209Z,78.48
2022-08-28T07:17:36.110Z,79.11
2022-08-28T07:20:09.942Z,78.95
2022-08-28T07:22:36.531Z,78.52
2022-08-28T07:25:04.755Z,78.56
2022-08-28T07:27:31.533Z,78.43
2022-08-28T07:29:58.701Z,77.89
2022-08-28T07:32:25.418Z,77.36
2022-08-28T07:34:52.124Z,78.07
2022-08-28T07:37:19.153Z,76.97
2022-08-28T07:39:46.013Z,76.24
2022-08-28T07:42:35.569Z,76.32
2022-08-28T07:45:02.906Z,76.07
2022-08-28T07:47:31.674Z,75.85
2022-08-28T07:50:03.552Z,75.67
2022-08-28T07:52:30.197Z,75.92
2022-08-28T07:54:57.416Z,76.02
2022-08-28T07:57:24.020Z,74.82
2022-08-28T07:59:52.368Z,74.52
2022-08-28T08:02:18.948Z,72.92
2022-08-28T08:04:45.660Z,72.32
2022-08-28T08:07:12.937Z,72.33
2022-08-28T08:09:41.557Z,70.40
2022-08-28T08:12:10.348Z,68.69
2022-08-28T08:14:39.049Z,63.80
2022-08-28T08:17:07.303Z,57.97
2022-08-28T08:19:35.370Z,54.89
2022-08-28T08:22:02.319Z,49.69
2022-08-28T08:24:30.388Z,49.35
2022-08-28T08:27:00.936Z,53.69
2022-08-28T08:29:35.391Z,56.30
2022-08-28T08:32:07.162Z,56.33
2022-08-28T08:34:36.652Z,57.77
2022-08-28T08:37:03.567Z,58.33
2022-08-28T08:39:31.838Z,58.90
2022-08-28T08:42:00.713Z,57.10
2022-08-28T08:44:41.287Z,55.56
2022-08-28T08:47:25.028Z,55.33
2022-08-28T08:50:09.471Z,58.73
2022-08-28T08:52:58.912Z,58.97
2022-08-28T08:55:35.853Z,57.12
2022-08-28T08:58:11.369Z,56.51
2022-08-28T09:00:50.799Z,57.25
2022-08-28T09:03:25.397Z,55.60
2022-08-28T09:06:02.250Z,53.16
2022-08-28T09:08:40.494Z,51.45
2022-08-28T09:11:22.338Z,48.46
2022-08-28T09:13:56.286Z,48.18
2022-08-28T09:16:29.878Z,47.80
2022-08-28T09:18:58.214Z,47.75
2022-08-28T09:21:33.646Z,50.54
2022-08-28T09:24:19.360Z,51.33
2022-08-28T09:26:57.639Z,53.32
2022-08-28T09:29:31.717Z,53.13
2022-08-28T09:31:58.906Z,55.13
2022-08-28T09:34:36.703Z,54.59
2022-08-28T09:37:08.480Z,54.04
2022-08-28T09:39:38.077Z,54.52
2022-08-28T09:42:32.934Z,55.34
2022-08-28T09:45:09.457Z,55.76
2022-08-28T09:47:46.194Z,56.39
2022-08-28T09:50:32.644Z,55.91
2022-08-28T09:53:14.321Z,51.75
2022-08-28T09:55:55.400Z,45.64
2022-08-28T09:58:23.576Z,45.95
2022-08-28T10:01:01.974Z,42.06
2022-08-28T10:03:36.981Z,43.65
2022-08-28T10:06:11.093Z,47.64
2022-08-28T10:09:01.570Z,47.34
2022-08-28T10:11:42.587Z,46.75
2022-08-28T10:14:42.061Z,48.98
2022-08-28T10:17:23.839Z,49.24
2022-08-28T10:19:59.562Z,49.14
2022-08-28T10:22:29.158Z,45.83
2022-08-28T10:25:08.972Z,47.59
2022-08-28T10:27:44.849Z,48.63
2022-08-28T10:30:22.930Z,50.33
2022-08-28T10:33:23.767Z,53.43
2022-08-28T10:36:02.737Z,53.09
2022-08-28T10:38:40.322Z,54.88
2022-08-28T10:41:27.272Z,54.27
2022-08-28T10:43:57.269Z,53.77
2022-08-28T10:46:33.788Z,52.57
2022-08-28T10:49:44.260Z,53.24
2022-08-28T10:52:23.153Z,53.76
2022-08-28T10:54:57.660Z,52.71
2022-08-28T10:57:40.100Z,52.21
2022-08-28T11:00:12.507Z,51.72
2022-08-28T11:02:44.422Z,50.74
2022-08-28T11:05:11.924Z,50.05
2022-08-28T11:07:47.896Z,49.93
2022-08-28T11:10:20.141Z,49.35
2022-08-28T11:12:48.314Z,49.59
2022-08-28T11:15:34.194Z,49.33
2022-08-28T11:18:20.936Z,49.96
2022-08-28T11:21:16.718Z,51.09
2022-08-28T11:23:52.790Z,51.56
2022-08-28T11:26:48.841Z,52.86
2022-08-28T11:30:03.627Z,53.96
2022-08-28T11:32:51.616Z,54.54
2022-08-28T11:35:30.234Z,54.14
2022-08-28T11:37:58.537Z,53.73
2022-08-28T11:40:28.197Z,53.22
2022-08-28T11:43:16.972Z,52.69
2022-08-28T11:45:46.537Z,52.11
2022-08-28T11:48:25.911Z,51.64
2022-08-28T11:51:03.668Z,51.50
2022-08-28T11:54:07.010Z,50.96
2022-08-28T11:57:11.633Z,51.03
2022-08-28T11:59:38.206Z,51.18
2022-08-28T12:02:49.624Z,50.73
2022-08-28T12:05:16.319Z,51.06
2022-08-28T12:07:45.055Z,52.09
2022-08-28T12:10:20.907Z,52.66
2022-08-28T12:12:52.833Z,51.39
2022-08-28T12:15:28.664Z,51.31
2022-08-28T12:17:58.470Z,51.51
2022-08-28T12:20:29.513Z,52.35
2022-08-28T12:22:59.739Z,51.76
2022-08-28T12:25:32.366Z,51.25
2022-08-28T12:28:28.724Z,51.66
2022-08-28T12:31:11.687Z,51.99
2022-08-28T12:34:00.744Z,50.49
2022-08-28T12:36:28.803Z,49.74
2022-08-28T12:38:58.233Z,49.46
2022-08-28T12:41:25.593Z,49.67
2022-08-28T12:43:58.205Z,49.93
2022-08-28T12:46:37.705Z,47.49
2022-08-28T12:49:25.148Z,46.11
2022-08-28T12:52:06.618Z,47.74
2022-08-28T12:54:33.324Z,48.27
2022-08-28T12:57:00.069Z,44.25
2022-08-28T12:59:36.688Z,44.65
2022-08-28T13:02:12.498Z,43.36
2022-08-28T13:04:56.055Z,42.28
2022-08-28T13:07:35.419Z,41.43
2022-08-28T13:10:19.237Z,41.47
2022-08-28T13:12:56.086Z,43.79
2022-08-28T13:16:01.416Z,44.86
2022-08-28T13:18:56.477Z,44.71
2022-08-28T13:21:33.858Z,45.23
2022-08-28T13:24:28.151Z,44.96
2022-08-28T13:27:50.521Z,43.88
2022-08-28T13:39:36.881Z,44.36
2022-08-28T13:48:49.066Z,45.76
2022-08-28T13:51:20.793Z,46.82
2022-08-28T14:08:00.397Z,49.64
2022-08-28T14:18:47.703Z,50.87
2022-08-28T14:25:52.434Z,50.28
2022-08-28T14:28:19.402Z,50.83
2022-08-28T14:30:48.658Z,50.87
2022-08-28T14:33:18.684Z,51.04
2022-08-28T14:35:50.132Z,50.57
2022-08-28T14:38:17.181Z,50.78
2022-08-28T14:40:44.850Z,50.16
2022-08-28T14:43:13.715Z,50.59
2022-08-28T14:45:50.248Z,50.38
2022-08-28T14:48:19.010Z,50.05
2022-08-28T14:50:48.058Z,50.98
2022-08-28T14:53:15.947Z,50.84
2022-08-28T14:55:48.621Z,50.82
2022-08-28T14:58:17.849Z,50.79
2022-08-28T15:00:50.101Z,50.34
2022-08-28T15:03:18.703Z,49.52
2022-08-28T15:05:46.074Z,49.67
2022-08-28T15:08:16.882Z,49.08
2022-08-28T15:10:44.344Z,49.05
2022-08-28T15:13:11.544Z,49.05
2022-08-28T15:15:41.215Z,48.39
2022-08-28T15:18:10.266Z,47.98
2022-08-28T15:20:46.895Z,47.75
2022-08-28T15:23:15.349Z,46.33
2022-08-28T15:25:42.383Z,46.08
2022-08-28T15:28:09.830Z,46.69
2022-08-28T15:30:37.606Z,46.90
2022-08-28T15:33:04.950Z,47.19
2022-08-28T15:35:33.890Z,46.94
2022-08-28T15:38:00.584Z,47.33
2022-08-28T15:40:45.861Z,46.96
2022-08-28T15:43:12.656Z,47.17
2022-08-28T15:45:41.233Z,47.59
2022-08-28T15:48:10.829Z,48.70
2022-08-28T15:50:38.571Z,49.04
2022-08-28T15:53:06.695Z,49.12
2022-08-28T15:55:36.703Z,48.57
2022-08-28T15:58:04.655Z,48.97
2022-08-28T16:00:40.755Z,48.78
2022-08-28T16:03:07.406Z,48.97
2022-08-28T16:05:40.616Z,50.12
2022-08-28T16:08:51.749Z,50.31
2022-08-28T16:11:59.290Z,50.31
2022-08-28T16:14:47.378Z,50.45
2022-08-28T16:17:45.009Z,51.63
2022-08-28T16:20:19.529Z,51.29
2022-08-28T16:22:54.052Z,51.19
2022-08-28T16:25:28.370Z,51.08
2022-08-28T16:28:16.232Z,51.68
2022-08-28T16:30:49.728Z,51.65
2022-08-28T16:33:22.195Z,51.35
2022-08-28T16:38:59.731Z,51.74
2022-08-28T16:41:32.315Z,51.73
2022-08-28T16:43:59.327Z,52.03
2022-08-28T16:46:44.390Z,52.43
2022-08-28T16:49:41.694Z,52.56
2022-08-28T16:52:08.332Z,52.24
2022-08-28T16:55:17.105Z,52.80
2022-08-28T16:57:44.077Z,52.57
2022-08-28T17:00:15.533Z,52.31
2022-08-28T17:02:43.683Z,52.91
2022-08-28T17:05:15.321Z,52.33
2022-08-28T17:08:02.191Z,52.12
2022-08-28T17:10:29.114Z,52.26
2022-08-28T17:12:56.669Z,52.66
2022-08-28T17:15:29.193Z,52.80
2022-08-28T17:17:56.489Z,53.12
2022-08-28T17:20:41.746Z,53.04
2022-08-28T17:23:08.384Z,52.85
2022-08-28T17:25:35.007Z,53.11
2022-08-28T17:28:04.473Z,53.23
2022-08-28T17:30:31.028Z,54.22
2022-08-28T17:33:04.678Z,54.29
2022-08-28T17:35:31.748Z,55.02
2022-08-28T17:38:08.336Z,54.92
2022-08-28T17:40:35.101Z,54.22
2022-08-28T17:43:02.864Z,54.28
2022-08-28T17:45:29.863Z,54.85
2022-08-28T17:48:08.782Z,54.16
2022-08-28T17:51:09.168Z,54.24
2022-08-28T18:09:38.855Z,52.88
2022-08-28T18:12:55.665Z,54.35
2022-08-28T18:23:35.638Z,57.92
2022-08-28T18:27:02.409Z,58.27
2022-08-28T18:29:49.384Z,58.36
2022-08-28T18:32:58.402Z,58.08
2022-08-28T18:42:27.681Z,59.35
2022-08-28T18:45:43.451Z,60.20
2022-08-28T18:48:10.228Z,60.75
2022-08-28T18:51:03.406Z,61.35
2022-08-28T18:53:53.436Z,62.02
2022-08-28T18:56:24.335Z,62.42
2022-08-28T18:58:57.100Z,62.67
2022-08-28T19:01:24.418Z,63.64
2022-08-28T19:03:51.114Z,64.87
2022-08-28T19:06:17.905Z,66.10
2022-08-28T19:08:45.905Z,65.64
2022-08-28T19:11:14.037Z,65.44
2022-08-28T19:13:42.009Z,64.52
2022-08-28T19:16:09.649Z,64.93
2022-08-28T19:18:36.417Z,65.17
2022-08-28T19:21:10.222Z,66.07
2022-08-28T19:23:42.109Z,66.57
2022-08-28T19:26:22.112Z,67.03
2022-08-28T19:28:50.558Z,66.63
2022-08-28T19:31:17.949Z,67.06
2022-08-28T19:33:46.480Z,67.48
2022-08-28T19:36:13.929Z,67.55
2022-08-28T19:38:41.761Z,67.72
2022-08-28T19:41:10.244Z,67.86
2022-08-28T19:43:42.870Z,67.57
2022-08-28T19:46:19.541Z,67.62
2022-08-28T19:48:50.569Z,67.90
2022-08-28T19:51:23.434Z,68.37
2022-08-28T19:53:58.469Z,69.34
2022-08-28T19:56:28.143Z,69.46
2022-08-28T19:58:58.903Z,69.21
2022-08-28T20:01:30.416Z,69.45
2022-08-28T20:03:58.585Z,69.50
2022-08-28T20:06:25.625Z,70.03
2022-08-28T20:08:52.238Z,70.55
2022-08-28T20:11:24.812Z,70.76
2022-08-28T20:13:56.590Z,71.11
2022-08-28T20:16:27.576Z,70.89
2022-08-28T20:18:55.716Z,70.58
2022-08-28T20:21:36.741Z,70.16
2022-08-28T20:24:07.329Z,71.06
2022-08-28T20:26:34.020Z,70.95
2022-08-28T20:29:00.669Z,70.86
2022-08-28T20:31:27.462Z,71.59
2022-08-28T20:33:54.314Z,71.81
2022-08-28T20:36:21.537Z,71.79
2022-08-28T20:38:48.284Z,72.00
2022-08-28T20:41:18.235Z,72.00
2022-08-28T20:43:46.317Z,72.09
2022-08-28T20:46:16.596Z,71.76
2022-08-28T20:48:44.041Z,72.47
2022-08-28T20:51:11.382Z,73.02
2022-08-28T20:53:38.719Z,73.69
2022-08-28T20:56:08.439Z,73.73
2022-08-28T20:58:36.012Z,74.18
2022-08-28T21:01:02.850Z,74.03
2022-08-28T21:03:32.549Z,73.88
2022-08-28T21:05:59.369Z,73.78
2022-08-28T21:08:26.140Z,73.63
2022-08-28T21:10:52.827Z,73.20
2022-08-28T21:13:19.702Z,73.02
2022-08-28T21:15:46.425Z,72.95
2022-08-28T21:18:13.865Z,72.28
2022-08-28T21:20:40.937Z,74.03
2022-08-28T21:23:08.839Z,76.07
2022-08-28T21:25:38.444Z,76.94
2022-08-28T21:28:06.725Z,77.70
2022-08-28T21:30:34.273Z,77.69
2022-08-28T21:33:01.146Z,77.58
2022-08-28T21:35:27.802Z,78.05
2022-08-28T21:37:54.471Z,78.72
2022-08-28T21:40:21.178Z,78.51
2022-08-28T21:42:50.232Z,77.76
2022-08-28T21:45:16.878Z,77.31
2022-08-28T21:47:43.849Z,77.45
2022-08-28T21:50:10.883Z,77.09
2022-08-28T21:52:37.586Z,76.74
2022-08-28T21:55:09.396Z,76.14
2022-08-28T21:57:36.510Z,75.10
2022-08-28T22:00:07.431Z,74.54
2022-08-28T22:02:34.574Z,74.65
2022-08-28T22:05:01.298Z,74.99
2022-08-28T22:07:27.976Z,75.04
2022-08-28T22:09:54.681Z,75.41
2022-08-28T22:12:21.452Z,75.09
2022-08-28T22:14:48.290Z,75.15
2022-08-28T22:17:15.322Z,75.25
2022-08-28T22:19:42.168Z,76.21
2022-08-28T22:22:31.542Z,76.69
2022-08-28T22:24:58.639Z,76.37
2022-08-28T22:27:25.339Z,76.41
2022-08-28T22:29:51.896Z,76.25
2022-08-28T22:32:18.707Z,76.57
2022-08-28T22:34:46.174Z,77.07
2022-08-28T22:37:13.633Z,77.25
2022-08-28T22:39:41.700Z,77.33
2022-08-28T22:42:09.796Z,78.38
2022-08-28T22:44:37.351Z,79.31
2022-08-28T22:47:04.900Z,80.22
2022-08-28T22:49:31.701Z,80.28
2022-08-28T22:51:58.404Z,81.03
2022-08-28T22:54:26.135Z,81.51
2022-08-28T22:56:52.769Z,81.54
2022-08-28T22:59:19.455Z,81.44
2022-08-28T23:01:46.385Z,81.78
2022-08-28T23:04:13.048Z,82.60
2022-08-28T23:06:40.265Z,82.59
2022-08-28T23:09:08.361Z,82.37
2022-08-28T23:11:36.422Z,82.26
2022-08-28T23:14:05.440Z,81.94
2022-08-28T23:16:32.465Z,81.85
2022-08-28T23:19:07.874Z,80.91
2022-08-28T23:21:40.964Z,80.41
2022-08-28T23:24:13.063Z,79.80
2022-08-28T23:26:39.739Z,79.99
2022-08-28T23:29:06.382Z,79.97
2022-08-28T23:31:33.049Z,80.12
2022-08-28T23:33:59.801Z,80.25
2022-08-28T23:36:26.532Z,80.18
2022-08-28T23:38:53.436Z,79.90
2022-08-28T23:41:20.065Z,80.45
2022-08-28T23:43:47.172Z,81.80
2022-08-28T23:46:16.281Z,82.71
2022-08-28T23:48:43.425Z,83.03
2022-08-28T23:51:13.845Z,83.46
2022-08-28T23:53:42.897Z,83.56
2022-08-28T23:56:09.728Z,82.98
2022-08-28T23:58:36.409Z,83.12
